sensor_id;sensor_type;location;lat;lon;timestamp;pressure;altitude;pressure_sealevel;temperature;humidity
58761;BME280;44529;47.464;19.014;2023-02-19T00:00:36;100343.75;;;12.06;63.97
58761;BME280;44529;47.464;19.014;2023-02-19T00:03:40;100347.88;;;12.03;64.00
58761;BME280;44529;47.464;19.014;2023-02-19T00:06:44;100339.25;;;12.01;64.32
58761;BME280;44529;47.464;19.014;2023-02-19T00:09:46;100333.19;;;11.96;64.22
58761;BME280;44529;47.464;19.014;2023-02-19T00:12:48;100329.22;;;11.93;64.78
58761;BME280;44529;47.464;19.014;2023-02-19T00:15:52;100334.16;;;11.91;64.54
58761;BME280;44529;47.464;19.014;2023-02-19T00:18:56;100335.59;;;11.88;64.57
58761;BME280;44529;47.464;19.014;2023-02-19T00:21:59;100331.63;;;11.86;64.54
58761;BME280;44529;47.464;19.014;2023-02-19T00:25:01;100326.81;;;11.83;64.75
58761;BME280;44529;47.464;19.014;2023-02-19T00:28:04;100328.25;;;11.89;64.62
58761;BME280;44529;47.464;19.014;2023-02-19T00:31:18;100328.91;;;11.86;64.67
58761;BME280;44529;47.464;19.014;2023-02-19T00:34:21;100333.00;;;11.75;65.28
58761;BME280;44529;47.464;19.014;2023-02-19T00:37:23;100326.81;;;11.83;64.99
58761;BME280;44529;47.464;19.014;2023-02-19T00:40:26;100323.00;;;11.84;64.45
58761;BME280;44529;47.464;19.014;2023-02-19T00:43:28;100323.31;;;11.82;64.87
58761;BME280;44529;47.464;19.014;2023-02-19T00:46:35;100311.03;;;11.85;64.84
58761;BME280;44529;47.464;19.014;2023-02-19T00:49:37;100306.88;;;11.79;65.04
58761;BME280;44529;47.464;19.014;2023-02-19T00:52:40;100309.88;;;11.77;65.23
58761;BME280;44529;47.464;19.014;2023-02-19T00:55:42;100319.31;;;11.80;65.29
58761;BME280;44529;47.464;19.014;2023-02-19T00:58:45;100312.16;;;11.84;65.22
58761;BME280;44529;47.464;19.014;2023-02-19T01:01:48;100315.47;;;11.72;65.67
58761;BME280;44529;47.464;19.014;2023-02-19T01:04:52;100318.81;;;11.69;66.06
58761;BME280;44529;47.464;19.014;2023-02-19T01:07:54;100304.47;;;11.69;66.36
58761;BME280;44529;47.464;19.014;2023-02-19T01:10:57;100309.25;;;11.72;66.44
58761;BME280;44529;47.464;19.014;2023-02-19T01:14:00;100312.78;;;11.72;66.63
58761;BME280;44529;47.464;19.014;2023-02-19T01:17:03;100316.44;;;11.68;66.94
58761;BME280;44529;47.464;19.014;2023-02-19T01:20:06;100315.59;;;11.58;66.95
58761;BME280;44529;47.464;19.014;2023-02-19T01:23:10;100314.84;;;11.66;66.60
58761;BME280;44529;47.464;19.014;2023-02-19T01:26:15;100317.22;;;11.68;66.62
58761;BME280;44529;47.464;19.014;2023-02-19T01:29:18;100318.37;;;11.84;65.88
58761;BME280;44529;47.464;19.014;2023-02-19T01:32:20;100305.47;;;11.81;65.94
58761;BME280;44529;47.464;19.014;2023-02-19T01:35:23;100303.56;;;11.82;66.29
58761;BME280;44529;47.464;19.014;2023-02-19T01:38:26;100308.44;;;11.62;66.89
58761;BME280;44529;47.464;19.014;2023-02-19T01:41:29;100322.94;;;11.58;67.14
58761;BME280;44529;47.464;19.014;2023-02-19T01:47:34;100318.75;;;11.43;67.98
58761;BME280;44529;47.464;19.014;2023-02-19T01:50:43;100312.88;;;11.41;68.03
58761;BME280;44529;47.464;19.014;2023-02-19T01:53:54;100307.12;;;11.43;68.16
58761;BME280;44529;47.464;19.014;2023-02-19T01:57:00;100306.34;;;11.51;68.16
58761;BME280;44529;47.464;19.014;2023-02-19T02:00:09;100298.03;;;11.38;68.54
58761;BME280;44529;47.464;19.014;2023-02-19T02:03:13;100303.91;;;11.32;69.10
58761;BME280;44529;47.464;19.014;2023-02-19T02:06:22;100303.44;;;11.30;69.42
58761;BME280;44529;47.464;19.014;2023-02-19T02:09:27;100300.75;;;11.30;69.57
58761;BME280;44529;47.464;19.014;2023-02-19T02:12:51;100292.16;;;11.45;69.13
58761;BME280;44529;47.464;19.014;2023-02-19T02:26:13;100291.37;;;11.45;68.77
58761;BME280;44529;47.464;19.014;2023-02-19T02:33:13;100292.47;;;11.44;68.48
58761;BME280;44529;47.464;19.014;2023-02-19T02:36:28;100288.00;;;11.39;68.66
58761;BME280;44529;47.464;19.014;2023-02-19T02:39:32;100286.12;;;11.48;68.67
58761;BME280;44529;47.464;19.014;2023-02-19T02:42:37;100290.41;;;11.41;69.67
58761;BME280;44529;47.464;19.014;2023-02-19T02:45:41;100286.75;;;11.36;70.55
58761;BME280;44529;47.464;19.014;2023-02-19T02:48:48;100286.09;;;11.31;71.60
58761;BME280;44529;47.464;19.014;2023-02-19T02:51:56;100280.81;;;11.26;72.09
58761;BME280;44529;47.464;19.014;2023-02-19T02:54:58;100287.19;;;11.21;72.61
58761;BME280;44529;47.464;19.014;2023-02-19T02:58:05;100280.16;;;11.20;72.93
58761;BME280;44529;47.464;19.014;2023-02-19T03:01:20;100283.31;;;11.13;73.93
58761;BME280;44529;47.464;19.014;2023-02-19T03:08:42;100297.28;;;10.98;76.42
58761;BME280;44529;47.464;19.014;2023-02-19T03:11:49;100288.69;;;10.96;77.02
58761;BME280;44529;47.464;19.014;2023-02-19T03:15:13;100289.44;;;10.88;77.72
58761;BME280;44529;47.464;19.014;2023-02-19T03:18:39;100286.59;;;10.93;76.78
58761;BME280;44529;47.464;19.014;2023-02-19T03:22:11;100292.00;;;10.93;76.75
58761;BME280;44529;47.464;19.014;2023-02-19T03:25:18;100293.25;;;10.87;76.51
58761;BME280;44529;47.464;19.014;2023-02-19T03:28:41;100302.00;;;10.84;76.54
58761;BME280;44529;47.464;19.014;2023-02-19T03:32:12;100305.78;;;10.74;77.22
58761;BME280;44529;47.464;19.014;2023-02-19T03:35:19;100298.97;;;10.77;76.96
58761;BME280;44529;47.464;19.014;2023-02-19T03:45:18;100291.22;;;10.62;77.80
58761;BME280;44529;47.464;19.014;2023-02-19T03:48:33;100298.50;;;10.52;78.29
58761;BME280;44529;47.464;19.014;2023-02-19T03:51:48;100292.91;;;10.49;78.83
58761;BME280;44529;47.464;19.014;2023-02-19T04:01:33;100279.38;;;10.49;78.70
58761;BME280;44529;47.464;19.014;2023-02-19T04:04:50;100284.16;;;10.43;77.90
58761;BME280;44529;47.464;19.014;2023-02-19T04:08:01;100282.53;;;10.42;78.49
58761;BME280;44529;47.464;19.014;2023-02-19T04:11:07;100289.19;;;10.36;78.99
58761;BME280;44529;47.464;19.014;2023-02-19T04:14:21;100294.28;;;10.38;78.91
58761;BME280;44529;47.464;19.014;2023-02-19T04:17:30;100306.03;;;10.33;78.43
58761;BME280;44529;47.464;19.014;2023-02-19T04:20:41;100300.41;;;10.29;78.97
58761;BME280;44529;47.464;19.014;2023-02-19T04:23:45;100305.16;;;10.24;79.52
58761;BME280;44529;47.464;19.014;2023-02-19T04:26:48;100294.94;;;10.21;79.90
58761;BME280;44529;47.464;19.014;2023-02-19T04:29:50;100298.75;;;10.20;80.58
58761;BME280;44529;47.464;19.014;2023-02-19T04:32:52;100299.66;;;10.15;80.58
58761;BME280;44529;47.464;19.014;2023-02-19T04:35:55;100298.75;;;10.20;80.20
58761;BME280;44529;47.464;19.014;2023-02-19T04:38:57;100302.91;;;10.03;81.05
58761;BME280;44529;47.464;19.014;2023-02-19T04:42:00;100297.91;;;9.74;82.55
58761;BME280;44529;47.464;19.014;2023-02-19T04:45:02;100295.69;;;9.76;82.76
58761;BME280;44529;47.464;19.014;2023-02-19T04:48:05;100294.41;;;9.74;83.31
58761;BME280;44529;47.464;19.014;2023-02-19T04:51:08;100299.72;;;9.79;83.49
58761;BME280;44529;47.464;19.014;2023-02-19T04:54:12;100314.63;;;9.63;84.39
58761;BME280;44529;47.464;19.014;2023-02-19T04:57:14;100314.63;;;9.63;84.26
58761;BME280;44529;47.464;19.014;2023-02-19T05:00:16;100314.63;;;9.63;84.33
58761;BME280;44529;47.464;19.014;2023-02-19T05:03:19;100297.66;;;9.48;85.31
58761;BME280;44529;47.464;19.014;2023-02-19T05:06:21;100291.06;;;9.55;84.89
58761;BME280;44529;47.464;19.014;2023-02-19T05:09:23;100295.25;;;9.61;84.85
58761;BME280;44529;47.464;19.014;2023-02-19T05:12:26;100297.16;;;9.60;85.46
58761;BME280;44529;47.464;19.014;2023-02-19T05:15:30;100305.34;;;9.55;85.49
58761;BME280;44529;47.464;19.014;2023-02-19T05:18:33;100299.22;;;9.63;85.10
58761;BME280;44529;47.464;19.014;2023-02-19T05:21:35;100292.03;;;9.59;85.18
58761;BME280;44529;47.464;19.014;2023-02-19T05:24:38;100302.13;;;9.53;85.53
58761;BME280;44529;47.464;19.014;2023-02-19T05:27:40;100310.53;;;9.52;86.01
58761;BME280;44529;47.464;19.014;2023-02-19T05:30:48;100295.47;;;9.50;86.04
58761;BME280;44529;47.464;19.014;2023-02-19T05:33:50;100297.16;;;9.46;86.37
58761;BME280;44529;47.464;19.014;2023-02-19T05:36:54;100288.88;;;9.43;86.37
58761;BME280;44529;47.464;19.014;2023-02-19T05:39:56;100288.09;;;9.42;86.40
58761;BME280;44529;47.464;19.014;2023-02-19T05:42:58;100282.38;;;9.44;86.36
58761;BME280;44529;47.464;19.014;2023-02-19T05:46:00;100282.84;;;9.46;86.50
58761;BME280;44529;47.464;19.014;2023-02-19T05:49:03;100283.16;;;9.44;86.63
58761;BME280;44529;47.464;19.014;2023-02-19T05:52:05;100286.28;;;9.38;87.09
58761;BME280;44529;47.464;19.014;2023-02-19T05:55:08;100302.28;;;9.34;87.27
58761;BME280;44529;47.464;19.014;2023-02-19T05:58:10;100302.28;;;9.34;87.41
58761;BME280;44529;47.464;19.014;2023-02-19T06:01:16;100298.59;;;9.30;87.92
58761;BME280;44529;47.464;19.014;2023-02-19T06:04:19;100310.50;;;9.29;88.52
58761;BME280;44529;47.464;19.014;2023-02-19T06:07:22;100314.28;;;9.28;88.95
58761;BME280;44529;47.464;19.014;2023-02-19T06:10:24;100307.16;;;9.32;89.02
58761;BME280;44529;47.464;19.014;2023-02-19T06:13:26;100315.88;;;9.29;89.37
58761;BME280;44529;47.464;19.014;2023-02-19T06:16:29;100313.28;;;9.24;89.45
58761;BME280;44529;47.464;19.014;2023-02-19T06:19:33;100304.19;;;9.20;89.59
58761;BME280;44529;47.464;19.014;2023-02-19T06:22:35;100301.00;;;9.18;89.78
58761;BME280;44529;47.464;19.014;2023-02-19T06:25:37;100290.91;;;9.10;90.44
58761;BME280;44529;47.464;19.014;2023-02-19T06:28:40;100289.00;;;9.10;90.42
58761;BME280;44529;47.464;19.014;2023-02-19T06:31:43;100284.91;;;9.13;90.37
58761;BME280;44529;47.464;19.014;2023-02-19T06:34:46;100285.22;;;9.11;90.20
58761;BME280;44529;47.464;19.014;2023-02-19T06:37:48;100286.50;;;9.14;90.05
58761;BME280;44529;47.464;19.014;2023-02-19T06:40:51;100281.72;;;9.11;90.25
58761;BME280;44529;47.464;19.014;2023-02-19T06:43:53;100274.50;;;9.06;90.86
58761;BME280;44529;47.464;19.014;2023-02-19T06:46:55;100272.84;;;8.97;91.53
58761;BME280;44529;47.464;19.014;2023-02-19T06:49:58;100268.13;;;9.02;91.58
58761;BME280;44529;47.464;19.014;2023-02-19T06:53:01;100275.94;;;9.04;91.48
58761;BME280;44529;47.464;19.014;2023-02-19T06:56:06;100277.63;;;9.00;92.16
58761;BME280;44529;47.464;19.014;2023-02-19T06:59:12;100277.53;;;9.05;91.79
58761;BME280;44529;47.464;19.014;2023-02-19T07:02:14;100275.13;;;9.03;92.04
58761;BME280;44529;47.464;19.014;2023-02-19T07:05:17;100276.50;;;9.01;92.10
58761;BME280;44529;47.464;19.014;2023-02-19T07:08:19;100279.59;;;8.94;92.57
58761;BME280;44529;47.464;19.014;2023-02-19T07:11:22;100283.50;;;8.88;92.69
58761;BME280;44529;47.464;19.014;2023-02-19T07:14:25;100282.91;;;8.91;92.73
58761;BME280;44529;47.464;19.014;2023-02-19T07:17:27;100293.31;;;8.98;92.49
58761;BME280;44529;47.464;19.014;2023-02-19T07:20:29;100286.31;;;8.97;93.37
58761;BME280;44529;47.464;19.014;2023-02-19T07:23:32;100292.50;;;8.97;92.87
58761;BME280;44529;47.464;19.014;2023-02-19T07:26:35;100291.31;;;9.03;92.34
58761;BME280;44529;47.464;19.014;2023-02-19T07:29:37;100281.31;;;9.04;92.29
58761;BME280;44529;47.464;19.014;2023-02-19T07:32:40;100284.09;;;8.99;92.51
58761;BME280;44529;47.464;19.014;2023-02-19T07:35:46;100277.63;;;9.00;92.49
58761;BME280;44529;47.464;19.014;2023-02-19T07:38:56;100269.62;;;9.08;92.24
58761;BME280;44529;47.464;19.014;2023-02-19T07:41:59;100265.94;;;9.04;91.73
58761;BME280;44529;47.464;19.014;2023-02-19T07:45:01;100265.31;;;9.07;91.99
58761;BME280;44529;47.464;19.014;2023-02-19T07:48:04;100256.34;;;9.12;91.48
58761;BME280;44529;47.464;19.014;2023-02-19T07:51:09;100259.94;;;9.21;91.23
58761;BME280;44529;47.464;19.014;2023-02-19T07:54:12;100264.00;;;9.32;90.18
58761;BME280;44529;47.464;19.014;2023-02-19T07:57:14;100270.41;;;9.36;89.05
58761;BME280;44529;47.464;19.014;2023-02-19T08:00:17;100279.50;;;9.40;88.65
58761;BME280;44529;47.464;19.014;2023-02-19T08:03:21;100269.50;;;9.41;88.56
58761;BME280;44529;47.464;19.014;2023-02-19T08:06:23;100290.28;;;9.40;88.74
58761;BME280;44529;47.464;19.014;2023-02-19T08:09:26;100298.16;;;9.50;88.88
58761;BME280;44529;47.464;19.014;2023-02-19T08:12:28;100303.06;;;9.48;90.44
58761;BME280;44529;47.464;19.014;2023-02-19T08:18:57;100298.37;;;9.40;96.01
58761;BME280;44529;47.464;19.014;2023-02-19T08:21:59;100298.88;;;9.42;97.22
58761;BME280;44529;47.464;19.014;2023-02-19T08:25:01;100315.47;;;9.36;99.80
58761;BME280;44529;47.464;19.014;2023-02-19T08:28:07;100318.25;;;9.44;100.00
58761;BME280;44529;47.464;19.014;2023-02-19T08:31:11;100323.44;;;9.68;100.00
58761;BME280;44529;47.464;19.014;2023-02-19T08:34:14;100320.31;;;9.75;100.00
58761;BME280;44529;47.464;19.014;2023-02-19T08:37:16;100314.00;;;9.80;100.00
58761;BME280;44529;47.464;19.014;2023-02-19T08:40:18;100306.34;;;9.95;100.00
58761;BME280;44529;47.464;19.014;2023-02-19T08:43:20;100306.97;;;9.92;100.00
58761;BME280;44529;47.464;19.014;2023-02-19T08:46:23;100303.09;;;10.07;100.00
58761;BME280;44529;47.464;19.014;2023-02-19T08:49:26;100299.97;;;10.14;100.00
58761;BME280;44529;47.464;19.014;2023-02-19T08:52:28;100300.66;;;10.19;100.00
58761;BME280;44529;47.464;19.014;2023-02-19T08:55:31;100299.84;;;10.19;100.00
58761;BME280;44529;47.464;19.014;2023-02-19T08:58:34;100292.72;;;10.00;100.00
58761;BME280;44529;47.464;19.014;2023-02-19T09:01:37;100305.91;;;10.02;100.00
58761;BME280;44529;47.464;19.014;2023-02-19T09:04:39;100297.22;;;10.05;100.00
58761;BME280;44529;47.464;19.014;2023-02-19T09:07:42;100299.53;;;9.98;100.00
58761;BME280;44529;47.464;19.014;2023-02-19T09:10:44;100303.53;;;10.00;100.00
58761;BME280;44529;47.464;19.014;2023-02-19T09:13:46;100308.66;;;9.88;100.00
58761;BME280;44529;47.464;19.014;2023-02-19T09:16:49;100301.94;;;9.99;100.00
58761;BME280;44529;47.464;19.014;2023-02-19T09:19:51;100303.16;;;9.93;100.00
58761;BME280;44529;47.464;19.014;2023-02-19T09:22:57;100306.28;;;9.87;100.00
58761;BME280;44529;47.464;19.014;2023-02-19T09:26:00;100299.72;;;9.79;100.00
58761;BME280;44529;47.464;19.014;2023-02-19T09:29:04;100297.28;;;9.77;100.00
58761;BME280;44529;47.464;19.014;2023-02-19T09:32:06;100306.00;;;9.74;100.00
58761;BME280;44529;47.464;19.014;2023-02-19T09:35:09;100301.81;;;9.68;100.00
58761;BME280;44529;47.464;19.014;2023-02-19T09:38:11;100295.84;;;9.58;100.00
58761;BME280;44529;47.464;19.014;2023-02-19T09:41:37;100296.06;;;9.47;100.00
58761;BME280;44529;47.464;19.014;2023-02-19T09:44:43;100291.97;;;9.50;100.00
58761;BME280;44529;47.464;19.014;2023-02-19T09:47:46;100282.72;;;9.65;100.00
58761;BME280;44529;47.464;19.014;2023-02-19T09:50:49;100289.00;;;9.74;100.00
58761;BME280;44529;47.464;19.014;2023-02-19T09:53:52;100287.19;;;9.83;100.00
58761;BME280;44529;47.464;19.014;2023-02-19T09:56:56;100285.78;;;9.86;100.00
58761;BME280;44529;47.464;19.014;2023-02-19T10:00:05;100284.00;;;9.81;100.00
58761;BME280;44529;47.464;19.014;2023-02-19T10:03:20;100283.63;;;9.96;100.00
58761;BME280;44529;47.464;19.014;2023-02-19T10:06:24;100267.78;;;10.03;100.00
58761;BME280;44529;47.464;19.014;2023-02-19T10:09:29;100262.62;;;10.16;100.00
58761;BME280;44529;47.464;19.014;2023-02-19T10:12:31;100269.72;;;10.25;100.00
58761;BME280;44529;47.464;19.014;2023-02-19T10:15:39;100257.72;;;10.40;100.00
58761;BME280;44529;47.464;19.014;2023-02-19T10:18:44;100243.97;;;10.50;100.00
58761;BME280;44529;47.464;19.014;2023-02-19T10:21:48;100227.66;;;10.73;100.00
58761;BME280;44529;47.464;19.014;2023-02-19T10:24:54;100231.94;;;10.74;100.00
58761;BME280;44529;47.464;19.014;2023-02-19T10:27:58;100219.31;;;11.00;100.00
58761;BME280;44529;47.464;19.014;2023-02-19T10:31:03;100232.41;;;11.16;100.00
58761;BME280;44529;47.464;19.014;2023-02-19T10:34:16;100218.41;;;11.39;100.00
58761;BME280;44529;47.464;19.014;2023-02-19T10:37:19;100216.03;;;11.64;99.62
58761;BME280;44529;47.464;19.014;2023-02-19T10:40:25;100210.50;;;11.86;99.04
58761;BME280;44529;47.464;19.014;2023-02-19T10:43:31;100202.19;;;12.00;95.45
58761;BME280;44529;47.464;19.014;2023-02-19T10:46:41;100198.94;;;12.15;91.27
58761;BME280;44529;47.464;19.014;2023-02-19T10:49:45;100178.78;;;12.34;90.88
58761;BME280;44529;47.464;19.014;2023-02-19T10:52:52;100185.13;;;12.46;89.76
58761;BME280;44529;47.464;19.014;2023-02-19T10:56:07;100176.81;;;12.52;87.42
58761;BME280;44529;47.464;19.014;2023-02-19T10:59:25;100179.41;;;12.78;83.56
58761;BME280;44529;47.464;19.014;2023-02-19T11:02:28;100179.00;;;12.88;81.70
58761;BME280;44529;47.464;19.014;2023-02-19T11:05:31;100160.09;;;13.00;80.78
58761;BME280;44529;47.464;19.014;2023-02-19T11:08:49;100148.69;;;13.15;80.66
58761;BME280;44529;47.464;19.014;2023-02-19T11:11:53;100157.19;;;13.35;77.89
58761;BME280;44529;47.464;19.014;2023-02-19T11:15:01;100170.94;;;13.50;74.63
58761;BME280;44529;47.464;19.014;2023-02-19T11:21:41;100135.84;;;13.78;71.76
58761;BME280;44529;47.464;19.014;2023-02-19T11:24:48;100137.69;;;13.87;70.87
58761;BME280;44529;47.464;19.014;2023-02-19T11:28:01;100148.13;;;13.97;67.95
58761;BME280;44529;47.464;19.014;2023-02-19T11:34:25;100127.50;;;13.96;68.64
58761;BME280;44529;47.464;19.014;2023-02-19T11:37:30;100126.50;;;14.00;67.30
58761;BME280;44529;47.464;19.014;2023-02-19T11:40:54;100125.94;;;14.07;65.52
58761;BME280;44529;47.464;19.014;2023-02-19T11:57:45;100110.56;;;14.23;65.28
58761;BME280;44529;47.464;19.014;2023-02-19T12:24:10;100058.63;;;14.65;61.36
58761;BME280;44529;47.464;19.014;2023-02-19T12:31:06;100052.75;;;14.63;60.95
58761;BME280;44529;47.464;19.014;2023-02-19T12:37:26;100056.25;;;14.76;60.89
58761;BME280;44529;47.464;19.014;2023-02-19T12:44:20;100033.84;;;14.95;60.19
58761;BME280;44529;47.464;19.014;2023-02-19T12:47:28;100056.22;;;14.88;59.66
58761;BME280;44529;47.464;19.014;2023-02-19T12:50:34;100043.84;;;14.90;59.86
58761;BME280;44529;47.464;19.014;2023-02-19T12:57:04;100070.94;;;14.87;60.94
58761;BME280;44529;47.464;19.014;2023-02-19T13:03:39;100082.56;;;15.12;60.52
58761;BME280;44529;47.464;19.014;2023-02-19T13:06:51;100076.59;;;15.34;60.35
58761;BME280;44529;47.464;19.014;2023-02-19T13:10:16;100063.00;;;15.78;58.93
58761;BME280;44529;47.464;19.014;2023-02-19T13:13:35;100049.66;;;15.61;57.07
58761;BME280;44529;47.464;19.014;2023-02-19T13:16:41;100046.03;;;15.57;59.88
58761;BME280;44529;47.464;19.014;2023-02-19T13:19:47;100044.50;;;15.28;58.49
58761;BME280;44529;47.464;19.014;2023-02-19T13:22:57;100025.28;;;15.08;60.13
58761;BME280;44529;47.464;19.014;2023-02-19T13:33:31;100002.44;;;15.13;60.23
58761;BME280;44529;47.464;19.014;2023-02-19T13:36:36;100035.06;;;15.25;59.39
58761;BME280;44529;47.464;19.014;2023-02-19T13:39:52;100019.69;;;15.17;58.33
58761;BME280;44529;47.464;19.014;2023-02-19T13:42:57;100026.50;;;15.11;58.19
58761;BME280;44529;47.464;19.014;2023-02-19T13:46:12;100017.72;;;15.02;57.28
58761;BME280;44529;47.464;19.014;2023-02-19T14:05:09;100129.19;;;13.88;65.09
58761;BME280;44529;47.464;19.014;2023-02-19T14:08:12;100140.34;;;13.41;68.35
58761;BME280;44529;47.464;19.014;2023-02-19T14:11:16;100205.12;;;12.71;74.37
58761;BME280;44529;47.464;19.014;2023-02-19T14:14:33;100157.88;;;11.79;81.72
58761;BME280;44529;47.464;19.014;2023-02-19T14:17:38;100156.63;;;11.50;82.07
58761;BME280;44529;47.464;19.014;2023-02-19T14:20:43;100168.09;;;11.47;85.36
58761;BME280;44529;47.464;19.014;2023-02-19T14:23:51;100185.78;;;11.27;87.26
58761;BME280;44529;47.464;19.014;2023-02-19T14:26:55;100174.94;;;11.19;90.38
58761;BME280;44529;47.464;19.014;2023-02-19T14:29:58;100168.88;;;11.04;91.73
58761;BME280;44529;47.464;19.014;2023-02-19T14:33:02;100177.31;;;11.11;89.86
58761;BME280;44529;47.464;19.014;2023-02-19T14:39:35;100206.41;;;10.89;94.65
58761;BME280;44529;47.464;19.014;2023-02-19T14:42:40;100197.66;;;10.92;94.69
58761;BME280;44529;47.464;19.014;2023-02-19T14:45:54;100197.63;;;10.83;96.64
58761;BME280;44529;47.464;19.014;2023-02-19T14:49:04;100196.87;;;11.00;94.28
58761;BME280;44529;47.464;19.014;2023-02-19T14:52:24;100203.09;;;11.09;94.96
58761;BME280;44529;47.464;19.014;2023-02-19T14:55:35;100191.91;;;10.93;97.25
58761;BME280;44529;47.464;19.014;2023-02-19T14:58:38;100193.50;;;10.94;95.09
58761;BME280;44529;47.464;19.014;2023-02-19T15:01:41;100186.69;;;11.05;94.82
58761;BME280;44529;47.464;19.014;2023-02-19T15:04:44;100180.00;;;11.11;93.08
58761;BME280;44529;47.464;19.014;2023-02-19T15:07:46;100193.41;;;11.17;89.64
58761;BME280;44529;47.464;19.014;2023-02-19T15:10:49;100196.91;;;11.26;91.82
58761;BME280;44529;47.464;19.014;2023-02-19T15:13:56;100214.41;;;11.20;90.07
58761;BME280;44529;47.464;19.014;2023-02-19T15:17:02;100235.41;;;11.14;89.96
58761;BME280;44529;47.464;19.014;2023-02-19T15:20:11;100234.00;;;11.08;88.75
58761;BME280;44529;47.464;19.014;2023-02-19T15:23:22;100247.00;;;10.97;89.17
58761;BME280;44529;47.464;19.014;2023-02-19T15:26:33;100244.34;;;10.75;90.25
58761;BME280;44529;47.464;19.014;2023-02-19T15:29:36;100244.34;;;10.66;89.33
58761;BME280;44529;47.464;19.014;2023-02-19T15:32:57;100257.81;;;10.57;87.61
58761;BME280;44529;47.464;19.014;2023-02-19T15:36:03;100246.78;;;10.45;88.71
58761;BME280;44529;47.464;19.014;2023-02-19T15:39:16;100238.81;;;10.40;89.21
58761;BME280;44529;47.464;19.014;2023-02-19T15:42:23;100249.75;;;10.35;89.55
58761;BME280;44529;47.464;19.014;2023-02-19T15:45:40;100251.69;;;10.21;90.69
58761;BME280;44529;47.464;19.014;2023-02-19T15:48:49;100253.19;;;10.27;89.12
58761;BME280;44529;47.464;19.014;2023-02-19T15:52:00;100236.22;;;10.35;88.13
58761;BME280;44529;47.464;19.014;2023-02-19T15:55:27;100234.94;;;10.33;86.67
58761;BME280;44529;47.464;19.014;2023-02-19T15:59:20;100240.97;;;10.29;85.65
58761;BME280;44529;47.464;19.014;2023-02-19T16:02:24;100227.63;;;10.33;86.11
58761;BME280;44529;47.464;19.014;2023-02-19T16:05:29;100243.22;;;10.14;86.89
58761;BME280;44529;47.464;19.014;2023-02-19T16:08:33;100243.97;;;10.28;84.31
58761;BME280;44529;47.464;19.014;2023-02-19T16:11:49;100275.72;;;10.45;83.58
58761;BME280;44529;47.464;19.014;2023-02-19T16:14:52;100255.84;;;10.49;82.08
58761;BME280;44529;47.464;19.014;2023-02-19T16:17:55;100264.72;;;10.41;81.87
58761;BME280;44529;47.464;19.014;2023-02-19T16:21:00;100280.63;;;10.43;81.13
58761;BME280;44529;47.464;19.014;2023-02-19T16:24:20;100271.25;;;10.40;82.34
58761;BME280;44529;47.464;19.014;2023-02-19T16:27:45;100275.09;;;10.48;81.72
58761;BME280;44529;47.464;19.014;2023-02-19T16:30:56;100274.16;;;10.52;80.80
58761;BME280;44529;47.464;19.014;2023-02-19T16:34:15;100287.69;;;10.52;80.68
58761;BME280;44529;47.464;19.014;2023-02-19T16:37:36;100291.75;;;10.41;81.87
58761;BME280;44529;47.464;19.014;2023-02-19T16:43:51;100319.28;;;10.43;82.70
58761;BME280;44529;47.464;19.014;2023-02-19T16:47:02;100325.19;;;10.45;83.04
58761;BME280;44529;47.464;19.014;2023-02-19T16:50:11;100322.25;;;10.33;86.69
58761;BME280;44529;47.464;19.014;2023-02-19T16:53:20;100328.44;;;10.34;85.11
58761;BME280;44529;47.464;19.014;2023-02-19T16:56:23;100317.25;;;10.26;85.73
58761;BME280;44529;47.464;19.014;2023-02-19T16:59:26;100321.44;;;9.96;87.91
58761;BME280;44529;47.464;19.014;2023-02-19T17:02:28;100335.09;;;9.77;88.53
58761;BME280;44529;47.464;19.014;2023-02-19T17:05:31;100333.72;;;9.80;87.33
58761;BME280;44529;47.464;19.014;2023-02-19T17:08:45;100329.72;;;9.64;86.58
58761;BME280;44529;47.464;19.014;2023-02-19T17:11:47;100355.13;;;9.63;86.07
58761;BME280;44529;47.464;19.014;2023-02-19T17:14:49;100337.50;;;9.79;85.40
58761;BME280;44529;47.464;19.014;2023-02-19T17:17:51;100350.34;;;9.60;86.33
58761;BME280;44529;47.464;19.014;2023-02-19T17:24:02;100355.13;;;9.63;86.56
58761;BME280;44529;47.464;19.014;2023-02-19T17:27:11;100341.72;;;9.58;86.52
58761;BME280;44529;47.464;19.014;2023-02-19T17:30:22;100335.53;;;9.57;85.74
58761;BME280;44529;47.464;19.014;2023-02-19T17:33:26;100340.34;;;9.60;84.93
58761;BME280;44529;47.464;19.014;2023-02-19T17:36:30;100357.62;;;9.45;85.42
58761;BME280;44529;47.464;19.014;2023-02-19T17:39:33;100354.25;;;9.54;81.58
58761;BME280;44529;47.464;19.014;2023-02-19T17:42:35;100352.84;;;9.56;79.86
58761;BME280;44529;47.464;19.014;2023-02-19T17:45:37;100362.06;;;9.41;80.22
58761;BME280;44529;47.464;19.014;2023-02-19T17:48:39;100363.66;;;9.29;80.60
58761;BME280;44529;47.464;19.014;2023-02-19T17:51:42;100383.44;;;9.38;80.13
58761;BME280;44529;47.464;19.014;2023-02-19T17:54:44;100395.25;;;9.42;79.97
58761;BME280;44529;47.464;19.014;2023-02-19T17:57:48;100383.84;;;9.31;80.29
58761;BME280;44529;47.464;19.014;2023-02-19T18:00:51;100385.25;;;9.29;78.94
58761;BME280;44529;47.464;19.014;2023-02-19T18:03:53;100395.72;;;9.30;80.22
58761;BME280;44529;47.464;19.014;2023-02-19T18:06:56;100374.75;;;9.41;78.94
58761;BME280;44529;47.464;19.014;2023-02-19T18:09:58;100377.03;;;9.34;78.86
58761;BME280;44529;47.464;19.014;2023-02-19T18:13:00;100364.34;;;9.34;79.44
58761;BME280;44529;47.464;19.014;2023-02-19T18:16:04;100385.44;;;9.32;79.43